Airfield :
LOGIN :

Register | Disclaimer

   EN    FR    IT 

 










Legend :    VFR   Marginal VFR   IFR   Intensive IFR   Very Intensive IFR
Visi :
Ceiling :
>= 8 km
>= 3000ft
5 to 8 km
1000 to 3000 ft
1500m to 5 km
500 to 1000 ft
800 to 1500m
200 to 500 ft
< 800m
< 200 ft
Symbols :   Thunderstorms  Fog  Heavy snow  Heavy precipitations  Wind > 20 kt
SIGMETs :     Misc.  Thunderstorms  Icing  Turbulence  Mountain Waves  Volcanic Ashes







- Airport Elevation : 267 ft


EGDR - Culdrose Navy

CURRENT METAR :
  • 170650Z 21002KT 9999 FEW016 SCT030 BKN350 09/07 Q1019 BLU NOSIG

EXPIRED METARs :
  • 170550Z 23005KT 9999 FEW030 SCT250 11/09 Q1019 BLU NOSIG
  • 170450Z AUTO 24006KT 9999 // NCD 12/09 Q1019

TAF TAF EGDR
Valid from the 17 at 06:00 until the 17 at 15:00 UTC


170519Z 1706/1715 24005KT 9999 FEW020
BECMG 1708/1711 VRB03KT
BECMG 1710/1712 07008KT
BECMG 1712/1715 6000 RA SCT008 BKN020
No reported NOTAMs for that airfield.
2 SIGMETs reported for the London FIR (EGTT) :
 
Severe turbulence
EGTT SIGMET 04 VALID 170500/170900 EGRR
EGTT LONDON FIR SEV TURB FCST N OF LINE N5230 W00530 - N5230 E00249 SFC/FL060 MOV N 15KT WKN=
Severe mountain waves
EGTT SIGMET 03 VALID 170500/170900 EGRR
EGTT LONDON FIR SEV MTW FCST WI N5220 W00530 - N5500 W00530 - N5500 E00115 - N5316 E00115 - N5124 W00259 - N5158 W00611 - N5220 W00530 FL030/200 MOV N 15KT WKN=



MET'MAP, your aeronautical weather chart ! - Copyright ORBIFLY December 2007 - Disclaimer

ORBIFLY MET'MAP TEAM :

Programming & Development : Alexandra Zaïnal
Concept & Development : Baudouin d'Aumeries
Co-Development & Prog : Marc-Olivier Méhu
Technical & hardware support : Manuel Goepfert

Contact : metmap@orbifly.com




SOURCES & CREDITS :

   NOAA